| time (UTC) | temp F | wind direction | speed knots | gust knots | rain 1hr in | rain 24hr in | rain mn in | humidity % | barometer mb |
| 20260508002037 | 59 | 275 | 1.7 | 5.2 | 0.00 | 0.00 | 0.00 | 42 | 1011.0 |
| 20260508001532 | 59 | 222 | 2.6 | 5.2 | 0.00 | 0.00 | 0.00 | 41 | 1010.8 |
| 20260508001029 | 60 | 226 | 2.6 | 5.2 | 0.00 | 0.00 | 0.00 | 41 | 1010.8 |
| 20260508000525 | 60 | 261 | 2.6 | 6.1 | 0.00 | 0.00 | 0.00 | 40 | 1010.7 |
| 20260508000023 | 60 | 273 | 5.2 | 6.1 | 0.00 | 0.00 | 0.00 | 40 | 1010.7 |
| 20260507235519 | 61 | 215 | 2.6 | 6.1 | 0.00 | 0.00 | 0.00 | 40 | 1010.3 |
| 20260507235017 | 61 | 261 | 1.7 | 7.0 | 0.00 | 0.00 | 0.00 | 40 | 1010.5 |
| 20260507234513 | 62 | 256 | 2.6 | 7.0 | 0.00 | 0.00 | 0.00 | 40 | 1010.3 |
| 20260507234009 | 61 | 187 | 1.7 | 2.6 | 0.00 | 0.00 | 0.00 | 41 | 1010.3 |
| 20260507233506 | 61 | 244 | 3.5 | 6.1 | 0.00 | 0.00 | 0.00 | 41 | 1010.2 |
| 20260507233005 | 62 | 198 | 1.7 | 7.0 | 0.00 | 0.00 | 0.00 | 40 | 1010.2 |
| 20260507232500 | 64 | 194 | 1.7 | 7.0 | 0.00 | 0.00 | 0.00 | 40 | 1010.0 |
| 20260507231958 | 64 | 227 | 1.7 | 3.5 | 0.00 | 0.00 | 0.00 | 39 | 1010.1 |
| 20260507231454 | 64 | 195 | 0.9 | 3.5 | 0.00 | 0.00 | 0.00 | 40 | 1009.6 |
| 20260507230951 | 64 | 220 | 1.7 | 7.0 | 0.00 | 0.00 | 0.00 | 41 | 1009.7 |
| 20260507230448 | 63 | 248 | 5.2 | 7.0 | 0.00 | 0.00 | 0.00 | 42 | 1009.7 |
| 20260507225944 | 63 | 238 | 5.2 | 6.1 | 0.00 | 0.00 | 0.00 | 61 | 1009.7 |
| 20260507225440 | 64 | 249 | 3.5 | 3.5 | 0.00 | 0.00 | 0.00 | 53 | 1009.6 |
| 20260507224936 | 62 | 238 | 3.5 | 3.5 | 0.00 | 0.00 | 0.00 | 64 | 1009.2 |
| 20260507224432 | 62 | 223 | 1.7 | 3.5 | 0.00 | 0.00 | 0.00 | 65 | 1009.3 |
| 20260507223929 | 62 | 180 | 0.0 | 1.7 | 0.00 | 0.00 | 0.00 | 67 | 1009.2 |
| 20260507223425 | 62 | 221 | 0.9 | 0.9 | 0.00 | 0.00 | 0.00 | 65 | 1009.0 |
| 20260507222922 | 62 | 183 | 0.0 | 0.0 | 0.00 | 0.00 | 0.00 | 66 | 1009.2 |
| 20260507222419 | 62 | 243 | 0.9 | 3.5 | 0.00 | 0.00 | 0.00 | 65 | 1009.2 |
| 20260507221916 | 62 | 246 | 3.5 | 5.2 | 0.00 | 0.00 | 0.00 | 64 | 1009.0 |
| 20260507221412 | 63 | 244 | 3.5 | 3.5 | 0.00 | 0.00 | 0.00 | 63 | 1008.8 |
| 20260507220908 | 64 | 236 | 2.6 | 5.2 | 0.00 | 0.00 | 0.00 | 61 | 1008.8 |
| 20260507220406 | 65 | 249 | 3.5 | 5.2 | 0.00 | 0.00 | 0.00 | 56 | 1008.7 |
| 20260507215902 | 66 | 232 | 1.7 | 5.2 | 0.00 | 0.00 | 0.00 | 56 | 1008.6 |
| 20260507215359 | 67 | 249 | 3.5 | 5.2 | 0.00 | 0.00 | 0.00 | 52 | 1008.6 |
| 20260507214856 | 68 | 228 | 5.2 | 6.1 | 0.00 | 0.00 | 0.00 | 52 | 1008.5 |
| 20260507214354 | 68 | 224 | 1.7 | 2.6 | 0.00 | 0.00 | 0.00 | 53 | 1008.6 |
| 20260507213849 | 67 | 194 | 2.6 | 3.5 | 0.00 | 0.00 | 0.00 | 56 | 1008.6 |
| 20260507213346 | 66 | 224 | 2.6 | 5.2 | 0.00 | 0.00 | 0.00 | 55 | 1008.6 |
| 20260507212843 | 65 | 185 | 3.5 | 3.5 | 0.00 | 0.00 | 0.00 | 59 | 1008.6 |
| 20260507212339 | 64 | 229 | 4.3 | 5.2 | 0.00 | 0.00 | 0.00 | 58 | 1008.6 |
| 20260507211836 | 64 | 265 | 2.6 | 3.5 | 0.00 | 0.00 | 0.00 | 59 | 1008.5 |
| 20260507211332 | 66 | 243 | 2.6 | 5.2 | 0.00 | 0.00 | 0.00 | 56 | 1008.6 |
| 20260507210829 | 66 | 238 | 2.6 | 3.5 | 0.00 | 0.00 | 0.00 | 54 | 1008.6 |
| 20260507210327 | 66 | 177 | 3.5 | 5.2 | 0.00 | 0.00 | 0.00 | 58 | 1008.6 |
| 20260507205823 | 67 | 251 | 4.3 | 6.1 | 0.00 | 0.00 | 0.00 | 56 | 1008.5 |
| 20260507205320 | 66 | 138 | 0.9 | 2.6 | 0.00 | 0.00 | 0.00 | 56 | 1008.5 |
| 20260507204816 | 67 | 251 | 3.5 | 3.5 | 0.00 | 0.00 | 0.00 | 56 | 1008.4 |
| 20260507204313 | 67 | 201 | 1.7 | 5.2 | 0.00 | 0.00 | 0.00 | 57 | 1008.7 |
| 20260507203811 | 66 | 178 | 0.0 | 0.9 | 0.00 | 0.00 | 0.00 | 58 | 1008.5 |
| 20260507203309 | 66 | 226 | 3.5 | 5.2 | 0.00 | 0.00 | 0.00 | 56 | 1008.5 |
| 20260507202805 | 67 | 187 | 0.9 | 3.5 | 0.00 | 0.00 | 0.00 | 54 | 1008.5 |
| 20260507202301 | 66 | 200 | 2.6 | 6.1 | 0.00 | 0.00 | 0.00 | 57 | 1008.8 |
| 20260507201756 | 66 | 240 | 3.5 | 6.1 | 0.00 | 0.00 | 0.00 | 57 | 1008.6 |
| 20260507201252 | 67 | 194 | 4.3 | 6.1 | 0.00 | 0.00 | 0.00 | 55 | 1008.6 |
| 20260507200749 | 67 | 88 | 0.9 | 7.0 | 0.00 | 0.00 | 0.00 | 55 | 1008.9 |
| 20260507200245 | 66 | 186 | 2.6 | 6.1 | 0.00 | 0.00 | 0.00 | 58 | 1008.8 |
| 20260507195741 | 68 | 220 | 1.7 | 6.1 | 0.00 | 0.00 | 0.00 | 56 | 1009.0 |
| 20260507195239 | 67 | 174 | 0.0 | 1.7 | 0.00 | 0.00 | 0.00 | 54 | 1008.9 |
| 20260507194736 | 66 | 201 | 1.7 | 3.5 | 0.00 | 0.00 | 0.00 | 58 | 1009.0 |
| 20260507194232 | 66 | 129 | 1.7 | 6.1 | 0.00 | 0.00 | 0.00 | 52 | 1009.0 |
| 20260507193729 | 66 | 189 | 3.5 | 5.2 | 0.00 | 0.00 | 0.00 | 53 | 1009.2 |
| 20260507193225 | 66 | 172 | 1.7 | 5.2 | 0.00 | 0.00 | 0.00 | 53 | 1009.2 |
| 20260507192722 | 66 | 215 | 2.6 | 5.2 | 0.00 | 0.00 | 0.00 | 57 | 1009.4 |
| 20260507192219 | 65 | 204 | 0.9 | 2.6 | 0.00 | 0.00 | 0.00 | 52 | 1009.5 |
| 20260507191714 | 64 | 186 | 1.7 | 3.5 | 0.00 | 0.00 | 0.00 | 56 | 1009.7 |
| 20260507191212 | 64 | 271 | 2.6 | 7.0 | 0.00 | 0.00 | 0.00 | 56 | 1009.8 |
| 20260507190708 | 65 | 255 | 3.5 | 5.2 | 0.00 | 0.00 | 0.00 | 60 | 1009.6 |
| 20260507190207 | 66 | 179 | 1.7 | 5.2 | 0.00 | 0.00 | 0.00 | 53 | 1009.7 |
| 20260507185705 | 65 | 161 | 2.6 | 3.5 | 0.00 | 0.00 | 0.00 | 53 | 1009.8 |
| 20260507185202 | 65 | 238 | 3.5 | 6.1 | 0.00 | 0.00 | 0.00 | 53 | 1009.7 |
| 20260507184659 | 65 | 171 | 1.7 | 3.5 | 0.00 | 0.00 | 0.00 | 53 | 1009.7 |
| 20260507184157 | 63 | 179 | 0.9 | 1.7 | 0.00 | 0.00 | 0.00 | 57 | 1009.7 |
| 20260507183653 | 64 | 152 | 2.6 | 5.2 | 0.00 | 0.00 | 0.00 | 54 | 1009.8 |
| 20260507183150 | 63 | 134 | 0.0 | 2.6 | 0.00 | 0.00 | 0.00 | 59 | 1009.8 |
| 20260507182647 | 62 | 211 | 0.0 | 0.9 | 0.00 | 0.00 | 0.00 | 57 | 1009.9 |
| 20260507182143 | 63 | 205 | 0.9 | 1.7 | 0.00 | 0.00 | 0.00 | 54 | 1009.8 |
| 20260507181639 | 64 | 153 | 1.7 | 5.2 | 0.00 | 0.00 | 0.00 | 53 | 1010.0 |
| 20260507181136 | 64 | 155 | 0.9 | 0.9 | 0.00 | 0.00 | 0.00 | 56 | 1010.0 |
| 20260507180632 | 63 | 121 | 0.9 | 5.2 | 0.00 | 0.00 | 0.00 | 58 | 1010.2 |
| 20260507180130 | 63 | 53 | 3.5 | 6.1 | 0.00 | 0.00 | 0.00 | 54 | 1010.0 |
| 20260507175625 | 63 | 153 | 3.5 | 5.2 | 0.00 | 0.00 | 0.00 | 57 | 1010.2 |
| 20260507175123 | 62 | 226 | 1.7 | 2.6 | 0.00 | 0.00 | 0.00 | 56 | 1010.2 |
| 20260507174620 | 60 | 65 | 0.0 | 0.9 | 0.00 | 0.00 | 0.00 | 59 | 1010.5 |
| 20260507174118 | 60 | 162 | 3.5 | 3.5 | 0.00 | 0.00 | 0.00 | 59 | 1010.8 |
| 20260507173615 | 60 | 195 | 0.9 | 5.2 | 0.00 | 0.00 | 0.00 | 61 | 1010.6 |
| 20260507173112 | 60 | 184 | 0.9 | 1.7 | 0.00 | 0.00 | 0.00 | 59 | 1010.6 |
| 20260507172607 | 60 | 160 | 0.9 | 2.6 | 0.00 | 0.00 | 0.00 | 59 | 1010.7 |
| 20260507172106 | 59 | 167 | 0.9 | 2.6 | 0.00 | 0.00 | 0.00 | 58 | 1010.7 |
| 20260507171600 | 59 | 157 | 0.9 | 3.5 | 0.00 | 0.00 | 0.00 | 63 | 1010.8 |
| 20260507171057 | 59 | 133 | 1.7 | 2.6 | 0.00 | 0.00 | 0.00 | 64 | 1011.1 |
| 20260507170554 | 59 | 82 | 1.7 | 2.6 | 0.00 | 0.00 | 0.00 | 63 | 1011.2 |
| 20260507170051 | 58 | 42 | 2.6 | 5.2 | 0.00 | 0.00 | 0.00 | 65 | 1011.1 |
| 20260507165547 | 58 | 147 | 2.6 | 5.2 | 0.00 | 0.00 | 0.00 | 64 | 1011.4 |
| 20260507165043 | 58 | 133 | 4.3 | 6.1 | 0.00 | 0.00 | 0.00 | 64 | 1011.3 |
| 20260507164539 | 58 | 49 | 4.3 | 5.2 | 0.00 | 0.00 | 0.00 | 63 | 1011.4 |
| 20260507164037 | 59 | 28 | 1.7 | 3.5 | 0.00 | 0.00 | 0.00 | 65 | 1011.4 |
| 20260507163534 | 59 | 30 | 0.9 | 2.6 | 0.00 | 0.00 | 0.00 | 63 | 1011.5 |
| 20260507163032 | 58 | 102 | 0.0 | 1.7 | 0.00 | 0.00 | 0.00 | 64 | 1011.6 |
| 20260507162532 | 58 | 166 | 0.0 | 3.5 | 0.00 | 0.00 | 0.00 | 61 | 1011.6 |
| 20260507162029 | 58 | 91 | 1.7 | 3.5 | 0.00 | 0.00 | 0.00 | 67 | 1011.6 |
| 20260507161526 | 58 | 51 | 1.7 | 3.5 | 0.00 | 0.00 | 0.00 | 65 | 1011.9 |
| 20260507161023 | 57 | 101 | 3.5 | 5.2 | 0.00 | 0.00 | 0.00 | 66 | 1012.0 |
| 20260507160519 | 56 | 62 | 1.7 | 5.2 | 0.00 | 0.00 | 0.00 | 66 | 1012.0 |
| 20260507160015 | 56 | 24 | 3.5 | 6.1 | 0.00 | 0.00 | 0.00 | 64 | 1012.1 |
| 20260507155510 | 57 | 103 | 2.6 | 3.5 | 0.00 | 0.00 | 0.00 | 63 | 1012.1 |
| 20260507155008 | 57 | 85 | 1.7 | 3.5 | 0.00 | 0.00 | 0.00 | 63 | 1012.4 |
| 20260507154504 | 58 | 10 | 2.6 | 6.1 | 0.00 | 0.00 | 0.00 | 62 | 1012.3 |
| 20260507154001 | 57 | 338 | 4.3 | 5.2 | 0.00 | 0.00 | 0.00 | 63 | 1012.3 |
| 20260507153458 | 57 | 5 | 6.1 | 7.0 | 0.00 | 0.00 | 0.00 | 62 | 1012.3 |
| 20260507152954 | 58 | 314 | 1.7 | 7.0 | 0.00 | 0.00 | 0.00 | 63 | 1012.4 |
| 20260507152451 | 57 | 3 | 2.6 | 3.5 | 0.00 | 0.00 | 0.00 | 66 | 1012.3 |
| 20260507151947 | 57 | 21 | 2.6 | 6.1 | 0.00 | 0.00 | 0.00 | 64 | 1012.5 |
| 20260507151443 | 56 | 359 | 3.5 | 6.1 | 0.00 | 0.00 | 0.00 | 67 | 1012.5 |
| 20260507150940 | 55 | 69 | 2.6 | 3.5 | 0.00 | 0.00 | 0.00 | 69 | 1012.6 |
| 20260507150437 | 55 | 280 | 2.6 | 6.1 | 0.00 | 0.00 | 0.00 | 68 | 1012.7 |
| 20260507145933 | 55 | 35 | 0.9 | 3.5 | 0.00 | 0.00 | 0.00 | 69 | 1012.8 |
| 20260507145429 | 55 | 77 | 2.6 | 6.1 | 0.00 | 0.00 | 0.00 | 68 | 1012.6 |
| 20260507144926 | 54 | 59 | 0.9 | 2.6 | 0.00 | 0.00 | 0.00 | 70 | 1012.8 |
| 20260507144423 | 54 | 218 | 2.6 | 5.2 | 0.00 | 0.00 | 0.00 | 69 | 1012.8 |
| 20260507143920 | 54 | 356 | 4.3 | 5.2 | 0.00 | 0.00 | 0.00 | 71 | 1012.9 |
| 20260507143418 | 54 | 55 | 1.7 | 3.5 | 0.00 | 0.00 | 0.00 | 72 | 1012.9 |
| 20260507142914 | 53 | 34 | 2.6 | 5.2 | 0.00 | 0.00 | 0.00 | 74 | 1012.9 |
| 20260507142410 | 53 | 10 | 0.9 | 3.5 | 0.00 | 0.00 | 0.00 | 72 | 1013.4 |
| 20260507141907 | 53 | 290 | 4.3 | 6.1 | 0.00 | 0.00 | 0.00 | 73 | 1013.3 |
| 20260507141403 | 53 | 86 | 0.9 | 1.7 | 0.00 | 0.00 | 0.00 | 74 | 1013.3 |
| 20260507140900 | 53 | 160 | 0.9 | 1.7 | 0.00 | 0.00 | 0.00 | 74 | 1013.2 |
| 20260507140357 | 53 | 2 | 2.6 | 5.2 | 0.00 | 0.00 | 0.00 | 75 | 1013.3 |
| 20260507135855 | 53 | 358 | 2.6 | 3.5 | 0.00 | 0.00 | 0.00 | 77 | 1013.3 |
| 20260507135351 | 53 | 14 | 1.7 | 3.5 | 0.00 | 0.00 | 0.00 | 78 | 1013.1 |
| 20260507134849 | 53 | 5 | 2.6 | 6.1 | 0.00 | 0.00 | 0.00 | 78 | 1013.3 |
| 20260507134345 | 53 | 35 | 4.3 | 6.1 | 0.00 | 0.00 | 0.00 | 78 | 1013.3 |
| 20260507133841 | 53 | 142 | 0.0 | 1.7 | 0.00 | 0.00 | 0.00 | 79 | 1013.4 |
| 20260507133336 | 53 | 59 | 1.7 | 1.7 | 0.00 | 0.00 | 0.00 | 79 | 1013.4 |
| 20260507132835 | 53 | 40 | 1.7 | 1.7 | 0.00 | 0.00 | 0.00 | 78 | 1013.6 |
| 20260507132331 | 53 | 5 | 2.6 | 3.5 | 0.00 | 0.00 | 0.00 | 78 | 1013.2 |
| 20260507131829 | 53 | 4 | 4.3 | 6.1 | 0.00 | 0.00 | 0.00 | 77 | 1013.4 |
| 20260507131325 | 53 | 118 | 0.9 | 1.7 | 0.00 | 0.00 | 0.00 | 78 | 1013.5 |
| 20260507130822 | 53 | 13 | 1.7 | 3.5 | 0.00 | 0.00 | 0.00 | 77 | 1013.6 |
| 20260507130319 | 53 | 348 | 1.7 | 2.6 | 0.00 | 0.00 | 0.00 | 79 | 1013.6 |
| 20260507125818 | 53 | 8 | 3.5 | 3.5 | 0.00 | 0.00 | 0.00 | 79 | 1013.7 |
| 20260507125315 | 53 | 64 | 0.9 | 2.6 | 0.00 | 0.00 | 0.00 | 79 | 1013.5 |
| 20260507124812 | 53 | 65 | 1.7 | 1.7 | 0.00 | 0.00 | 0.00 | 79 | 1013.5 |
| 20260507124308 | 53 | 135 | 0.0 | 0.9 | 0.00 | 0.00 | 0.00 | 80 | 1013.4 |
| 20260507123807 | 53 | 122 | 0.0 | 0.9 | 0.00 | 0.00 | 0.00 | 80 | 1013.5 |
| 20260507123304 | 53 | 100 | 1.7 | 3.5 | 0.00 | 0.00 | 0.00 | 79 | 1013.5 |
| 20260507122800 | 53 | 75 | 1.7 | 5.2 | 0.00 | 0.00 | 0.00 | 79 | 1013.2 |
| 20260507122255 | 53 | 45 | 1.7 | 3.5 | 0.00 | 0.00 | 0.00 | 80 | 1013.3 |
| 20260507121751 | 53 | 124 | 2.6 | 3.5 | 0.00 | 0.00 | 0.00 | 79 | 1013.4 |
| 20260507121247 | 53 | 90 | 1.7 | 2.6 | 0.00 | 0.00 | 0.00 | 82 | 1013.3 |
| 20260507120744 | 53 | 85 | 2.6 | 2.6 | 0.00 | 0.00 | 0.00 | 81 | 1013.0 |
| 20260507120241 | 53 | 142 | 0.9 | 1.7 | 0.00 | 0.00 | 0.00 | 82 | 1012.8 |
| 20260507115737 | 53 | 110 | 0.9 | 1.7 | 0.00 | 0.00 | 0.00 | 81 | 1013.0 |
| 20260507115233 | 53 | 149 | 0.9 | 2.6 | 0.00 | 0.00 | 0.00 | 80 | 1013.1 |
| 20260507114728 | 52 | 134 | 0.9 | 1.7 | 0.00 | 0.00 | 0.00 | 82 | 1013.0 |
| 20260507114226 | 52 | 148 | 0.9 | 1.7 | 0.00 | 0.00 | 0.00 | 82 | 1013.0 |
| 20260507113724 | 52 | 109 | 0.0 | 0.9 | 0.00 | 0.00 | 0.00 | 82 | 1013.1 |
| 20260507113220 | 52 | 146 | 0.0 | 0.9 | 0.00 | 0.00 | 0.00 | 82 | 1012.8 |
| 20260507112718 | 52 | 49 | 1.7 | 2.6 | 0.00 | 0.00 | 0.00 | 82 | 1013.0 |
| 20260507112215 | 52 | 140 | 0.9 | 1.7 | 0.00 | 0.00 | 0.00 | 80 | 1012.9 |
| 20260507111712 | 52 | 61 | 1.7 | 2.6 | 0.00 | 0.00 | 0.00 | 79 | 1012.7 |
| 20260507111209 | 52 | 140 | 0.0 | 0.9 | 0.00 | 0.00 | 0.00 | 80 | 1012.7 |
| 20260507110705 | 52 | 9 | 0.9 | 2.6 | 0.00 | 0.00 | 0.00 | 79 | 1012.6 |
| 20260507110202 | 52 | 70 | 0.9 | 0.9 | 0.00 | 0.00 | 0.00 | 84 | 1012.3 |
| 20260507105659 | 52 | 130 | 0.9 | 1.7 | 0.00 | 0.00 | 0.00 | 83 | 1012.4 |
| 20260507105154 | 51 | 104 | 0.9 | 0.9 | 0.00 | 0.00 | 0.00 | 84 | 1012.6 |
| 20260507104652 | 51 | 248 | 0.0 | 1.7 | 0.00 | 0.00 | 0.00 | 86 | 1012.5 |
| 20260507104148 | 51 | 123 | 0.9 | 1.7 | 0.00 | 0.00 | 0.00 | 86 | 1012.4 |
| 20260507103644 | 51 | 116 | 0.9 | 1.7 | 0.00 | 0.00 | 0.00 | 86 | 1012.5 |
| 20260507103141 | 51 | 110 | 0.9 | 1.7 | 0.00 | 0.00 | 0.00 | 86 | 1012.3 |
| 20260507102637 | 51 | 147 | 0.0 | 0.9 | 0.00 | 0.00 | 0.00 | 85 | 1012.5 |
| 20260507102134 | 52 | 332 | 1.7 | 1.7 | 0.00 | 0.00 | 0.00 | 85 | 1012.7 |
| 20260507101630 | 51 | 153 | 0.0 | 0.0 | 0.00 | 0.00 | 0.00 | 85 | 1012.4 |
| 20260507101126 | 52 | 144 | 0.0 | 0.0 | 0.00 | 0.00 | 0.00 | 84 | 1012.7 |
| 20260507100623 | 52 | 134 | 0.9 | 1.7 | 0.00 | 0.00 | 0.00 | 82 | 1012.6 |
| 20260507100121 | 52 | 155 | 0.0 | 0.9 | 0.00 | 0.00 | 0.00 | 82 | 1012.4 |
| 20260507095619 | 52 | 155 | 0.0 | 2.6 | 0.00 | 0.00 | 0.00 | 82 | 1012.5 |
| 20260507095115 | 52 | 90 | 0.9 | 1.7 | 0.00 | 0.00 | 0.00 | 83 | 1012.5 |
| 20260507094611 | 52 | 108 | 0.9 | 1.7 | 0.00 | 0.00 | 0.00 | 84 | 1012.3 |
| 20260507094109 | 52 | 66 | 1.7 | 1.7 | 0.00 | 0.00 | 0.00 | 83 | 1012.2 |
| 20260507093606 | 52 | 119 | 0.9 | 1.7 | 0.00 | 0.00 | 0.00 | 84 | 1012.3 |
| 20260507093105 | 52 | 138 | 0.9 | 1.7 | 0.00 | 0.00 | 0.00 | 81 | 1012.2 |
| 20260507092601 | 52 | 126 | 0.9 | 3.5 | 0.00 | 0.00 | 0.00 | 81 | 1012.3 |
| 20260507092057 | 52 | 113 | 1.7 | 2.6 | 0.00 | 0.00 | 0.00 | 81 | 1012.2 |
| 20260507091554 | 52 | 61 | 0.9 | 1.7 | 0.00 | 0.00 | 0.00 | 82 | 1012.3 |
| 20260507091050 | 52 | 94 | 0.9 | 1.7 | 0.00 | 0.00 | 0.00 | 82 | 1012.4 |
| 20260507090546 | 52 | 109 | 1.7 | 3.5 | 0.00 | 0.00 | 0.00 | 81 | 1012.2 |
| 20260507090043 | 52 | 170 | 1.7 | 2.6 | 0.00 | 0.00 | 0.00 | 82 | 1012.1 |
| 20260507085540 | 52 | 84 | 1.7 | 1.7 | 0.00 | 0.00 | 0.00 | 83 | 1012.2 |
| 20260507085037 | 52 | 65 | 1.7 | 1.7 | 0.00 | 0.00 | 0.00 | 83 | 1012.0 |
| 20260507084533 | 52 | 46 | 1.7 | 1.7 | 0.00 | 0.00 | 0.00 | 84 | 1012.0 |
| 20260507084031 | 52 | 167 | 0.9 | 2.6 | 0.00 | 0.00 | 0.00 | 83 | 1012.0 |
| 20260507083527 | 52 | 35 | 1.7 | 2.6 | 0.00 | 0.00 | 0.00 | 83 | 1011.7 |
| 20260507083024 | 52 | 106 | 0.9 | 1.7 | 0.00 | 0.00 | 0.00 | 85 | 1012.0 |
| 20260507082520 | 52 | 137 | 0.0 | 2.6 | 0.00 | 0.00 | 0.00 | 85 | 1012.0 |
| 20260507082016 | 53 | 52 | 3.5 | 3.5 | 0.00 | 0.00 | 0.00 | 85 | 1012.1 |
| 20260507081513 | 53 | 51 | 2.6 | 2.6 | 0.00 | 0.00 | 0.00 | 85 | 1012.3 |
| 20260507081010 | 53 | 117 | 0.9 | 2.6 | 0.00 | 0.00 | 0.00 | 85 | 1012.3 |
| 20260507080506 | 53 | 115 | 0.9 | 2.6 | 0.00 | 0.00 | 0.00 | 85 | 1012.4 |
| 20260507080001 | 53 | 92 | 0.9 | 2.6 | 0.00 | 0.00 | 0.00 | 85 | 1012.5 |
| 20260507075457 | 53 | 13 | 1.7 | 5.2 | 0.00 | 0.00 | 0.00 | 85 | 1012.1 |
| 20260507074954 | 53 | 93 | 0.9 | 2.6 | 0.00 | 0.00 | 0.00 | 85 | 1012.1 |
| 20260507074451 | 53 | 89 | 1.7 | 2.6 | 0.00 | 0.00 | 0.00 | 86 | 1012.2 |
| 20260507073949 | 53 | 71 | 0.9 | 5.2 | 0.00 | 0.00 | 0.00 | 85 | 1012.2 |
| 20260507073445 | 53 | 173 | 0.9 | 5.2 | 0.00 | 0.00 | 0.00 | 85 | 1012.2 |
| 20260507072942 | 54 | 33 | 4.3 | 5.2 | 0.00 | 0.00 | 0.00 | 86 | 1011.7 |
| 20260507072439 | 54 | 60 | 1.7 | 2.6 | 0.00 | 0.00 | 0.00 | 86 | 1012.0 |
| 20260507071937 | 54 | 70 | 1.7 | 1.7 | 0.00 | 0.00 | 0.00 | 87 | 1011.5 |
| 20260507071434 | 54 | 12 | 2.6 | 5.2 | 0.00 | 0.00 | 0.00 | 86 | 1011.5 |
| 20260507070930 | 54 | 97 | 3.5 | 7.0 | 0.00 | 0.00 | 0.00 | 86 | 1011.4 |
| 20260507070428 | 55 | 32 | 2.6 | 6.1 | 0.00 | 0.00 | 0.00 | 86 | 1011.6 |
| 20260507065924 | 55 | 62 | 1.7 | 7.0 | 0.00 | 0.00 | 0.00 | 89 | 1011.5 |
| 20260507065421 | 55 | 104 | 0.9 | 1.7 | 0.00 | 0.00 | 0.00 | 90 | 1011.6 |
| 20260507064918 | 55 | 99 | 1.7 | 5.2 | 0.00 | 0.00 | 0.00 | 90 | 1011.6 |
| 20260507064416 | 55 | 106 | 0.9 | 2.6 | 0.00 | 0.00 | 0.00 | 90 | 1011.4 |
| 20260507063914 | 55 | 78 | 1.7 | 3.5 | 0.00 | 0.00 | 0.00 | 90 | 1011.5 |
| 20260507063411 | 55 | 38 | 2.6 | 7.0 | 0.00 | 0.00 | 0.00 | 90 | 1011.9 |
| 20260507062908 | 55 | 54 | 2.6 | 5.2 | 0.00 | 0.00 | 0.00 | 90 | 1011.5 |
| 20260507062405 | 55 | 65 | 1.7 | 5.2 | 0.00 | 0.00 | 0.00 | 90 | 1011.7 |
| 20260507061902 | 55 | 62 | 1.7 | 5.2 | 0.00 | 0.00 | 0.00 | 90 | 1011.6 |
| 20260507061400 | 56 | 141 | 0.9 | 3.5 | 0.00 | 0.00 | 0.00 | 90 | 1011.5 |
| 20260507060858 | 56 | 38 | 1.7 | 5.2 | 0.00 | 0.00 | 0.00 | 90 | 1011.6 |
| 20260507060355 | 56 | 71 | 3.5 | 5.2 | 0.00 | 0.00 | 0.00 | 90 | 1011.5 |
| 20260507055852 | 56 | 53 | 1.7 | 2.6 | 0.00 | 0.00 | 0.00 | 91 | 1012.1 |
| 20260507055346 | 56 | 74 | 1.7 | 5.2 | 0.00 | 0.00 | 0.00 | 90 | 1011.7 |
| 20260507054844 | 56 | 83 | 1.7 | 3.5 | 0.00 | 0.00 | 0.00 | 90 | 1011.7 |
| 20260507054340 | 56 | 76 | 2.6 | 5.2 | 0.00 | 0.00 | 0.00 | 89 | 1012.0 |
| 20260507053837 | 57 | 60 | 2.6 | 3.5 | 0.00 | 0.00 | 0.00 | 90 | 1012.0 |
| 20260507053335 | 57 | 116 | 1.7 | 3.5 | 0.00 | 0.00 | 0.00 | 90 | 1012.1 |
| 20260507052833 | 57 | 92 | 0.9 | 5.2 | 0.00 | 0.00 | 0.00 | 90 | 1011.6 |
| 20260507052330 | 57 | 91 | 1.7 | 1.7 | 0.00 | 0.00 | 0.00 | 91 | 1011.2 |
| 20260507051828 | 57 | 90 | 1.7 | 3.5 | 0.00 | 0.00 | 0.00 | 91 | 1011.2 |
| 20260507051325 | 57 | 79 | 1.7 | 3.5 | 0.00 | 0.00 | 0.00 | 92 | 1011.4 |
| 20260507050822 | 57 | 30 | 0.9 | 2.6 | 0.00 | 0.00 | 0.00 | 92 | 1011.6 |
| 20260507050318 | 57 | 37 | 1.7 | 2.6 | 0.00 | 0.00 | 0.00 | 92 | 1011.5 |
| 20260507045815 | 57 | 113 | 0.9 | 2.6 | 0.00 | 0.00 | 0.00 | 91 | 1011.2 |
| 20260507045312 | 57 | 159 | 0.9 | 3.5 | 0.00 | 0.00 | 0.00 | 91 | 1011.4 |
| 20260507044809 | 58 | 11 | 3.5 | 3.5 | 0.00 | 0.00 | 0.00 | 92 | 1011.0 |
| 20260507044305 | 58 | 40 | 1.7 | 2.6 | 0.00 | 0.00 | 0.00 | 92 | 1010.8 |
| 20260507043801 | 58 | 52 | 3.5 | 3.5 | 0.00 | 0.00 | 0.00 | 92 | 1011.2 |
| 20260507043258 | 59 | 0 | 2.6 | 5.2 | 0.00 | 0.00 | 0.00 | 92 | 1010.8 |
| 20260507042754 | 59 | 333 | 3.5 | 5.2 | 0.00 | 0.00 | 0.00 | 92 | 1010.7 |
| 20260507042249 | 59 | 347 | 3.5 | 7.0 | 0.00 | 0.00 | 0.00 | 92 | 1010.4 |
| 20260507041747 | 59 | 53 | 2.6 | 7.0 | 0.00 | 0.00 | 0.00 | 92 | 1009.7 |
| 20260507041243 | 59 | 94 | 1.7 | 2.6 | 0.00 | 0.00 | 0.00 | 92 | 1010.4 |
| 20260507040741 | 60 | 183 | 1.7 | 5.2 | 0.00 | 0.00 | 0.00 | 92 | 1010.5 |
| 20260507040237 | 60 | 74 | 5.2 | 7.0 | 0.00 | 0.00 | 0.00 | 93 | 1010.5 |
| 20260507035733 | 60 | 119 | 2.6 | 3.5 | 0.00 | 0.21 | 0.21 | 94 | 1011.1 |
| 20260507035228 | 60 | 153 | 0.0 | 0.0 | 0.05 | 0.21 | 0.21 | 94 | 1011.7 |
| 20260507034726 | 60 | 155 | 0.0 | 2.6 | 0.24 | 0.21 | 0.21 | 95 | 1011.5 |
| 20260507034223 | 60 | 97 | 1.7 | 1.7 | 0.24 | 0.20 | 0.20 | 95 | 1011.3 |
| 20260507033721 | 60 | 157 | 0.0 | 0.9 | 0.05 | 0.17 | 0.17 | 95 | 1011.7 |
| 20260507033218 | 60 | 163 | 0.0 | 0.0 | 0.00 | 0.16 | 0.16 | 95 | 1011.9 |
| 20260507032716 | 60 | 157 | 0.0 | 1.7 | 0.00 | 0.16 | 0.16 | 94 | 1011.3 |
| 20260507032211 | 60 | 141 | 0.0 | 0.9 | 0.00 | 0.16 | 0.16 | 94 | 1011.3 |
| 20260507031708 | 60 | 88 | 1.7 | 1.7 | 0.00 | 0.16 | 0.16 | 94 | 1011.2 |
| 20260507031205 | 60 | 105 | 0.9 | 1.7 | 0.00 | 0.16 | 0.16 | 94 | 1010.9 |
| 20260507030702 | 60 | 144 | 0.9 | 0.9 | 0.00 | 0.16 | 0.16 | 94 | 1011.0 |
| 20260507030200 | 60 | 134 | 0.0 | 0.9 | 0.00 | 0.16 | 0.16 | 94 | 1011.0 |
| 20260507025656 | 60 | 141 | 0.9 | 1.7 | 0.00 | 0.16 | 0.16 | 94 | 1010.7 |
| 20260507025153 | 61 | 138 | 0.0 | 0.9 | 0.00 | 0.16 | 0.16 | 93 | 1011.1 |
| 20260507024652 | 61 | 158 | 0.0 | 0.0 | 0.00 | 0.16 | 0.16 | 93 | 1011.2 |
| 20260507024149 | 61 | 190 | 0.9 | 0.9 | 0.07 | 0.16 | 0.16 | 92 | 1011.2 |
| 20260507023644 | 61 | 122 | 0.9 | 0.9 | 0.07 | 0.16 | 0.16 | 92 | 1011.1 |
| 20260507023142 | 61 | 184 | 0.0 | 0.9 | 0.00 | 0.15 | 0.15 | 92 | 1011.1 |
| 20260507022638 | 61 | 146 | 0.0 | 1.7 | 0.00 | 0.15 | 0.15 | 92 | 1010.7 |
| 20260507022134 | 61 | 211 | 0.9 | 0.9 | 0.00 | 0.15 | 0.15 | 91 | 1010.8 |
| 20260507021630 | 62 | 136 | 0.0 | 0.9 | 0.05 | 0.15 | 0.15 | 90 | 1010.6 |
| 20260507021126 | 62 | 141 | 0.0 | 1.7 | 0.05 | 0.15 | 0.15 | 89 | 1010.4 |
| 20260507020625 | 62 | 131 | 0.9 | 2.6 | 0.00 | 0.14 | 0.14 | 90 | 1010.1 |
| 20260507020120 | 62 | 167 | 0.9 | 0.9 | 0.00 | 0.14 | 0.14 | 88 | 1010.5 |
| 20260507015619 | 62 | 141 | 0.9 | 0.9 | 0.00 | 0.14 | 0.14 | 88 | 1010.6 |
| 20260507015116 | 62 | 129 | 0.0 | 2.6 | 0.00 | 0.14 | 0.14 | 88 | 1010.7 |
| 20260507014612 | 62 | 1 | 2.6 | 3.5 | 0.00 | 0.14 | 0.14 | 90 | 1010.9 |
| 20260507014108 | 62 | 128 | 0.0 | 0.9 | 0.00 | 0.14 | 0.14 | 90 | 1010.7 |
| 20260507013605 | 62 | 84 | 1.7 | 2.6 | 0.00 | 0.14 | 0.14 | 90 | 1010.6 |
| 20260507013102 | 62 | 123 | 0.9 | 1.7 | 0.00 | 0.14 | 0.14 | 90 | 1010.2 |
| 20260507012600 | 63 | 156 | 0.9 | 3.5 | 0.00 | 0.14 | 0.14 | 89 | 1010.0 |
| 20260507012055 | 63 | 63 | 1.7 | 2.6 | 0.00 | 0.14 | 0.14 | 89 | 1009.8 |
| 20260507011553 | 63 | 11 | 0.9 | 2.6 | 0.00 | 0.14 | 0.14 | 90 | 1009.9 |
| 20260507011049 | 63 | 120 | 1.7 | 1.7 | 0.00 | 0.14 | 0.14 | 90 | 1009.7 |
| 20260507010544 | 62 | 53 | 1.7 | 1.7 | 0.00 | 0.14 | 0.14 | 91 | 1009.9 |
| 20260507010040 | 63 | 148 | 0.0 | 1.7 | 0.00 | 0.14 | 0.14 | 89 | 1010.4 |
| 20260507005538 | 63 | 118 | 0.9 | 1.7 | 0.00 | 0.14 | 0.14 | 87 | 1010.1 |
| 20260507005034 | 63 | 137 | 0.0 | 1.7 | 0.00 | 0.14 | 0.14 | 88 | 1010.3 |
| 20260507004531 | 63 | 110 | 0.9 | 0.9 | 0.00 | 0.14 | 0.14 | 89 | 1010.5 |
| 20260507004029 | 63 | 194 | 0.0 | 1.7 | 0.00 | 0.14 | 0.14 | 89 | 1010.3 |
| 20260507003524 | 64 | 148 | 0.0 | 1.7 | 0.00 | 0.14 | 0.14 | 87 | 1010.7 |
| 20260507003019 | 64 | 148 | 0.9 | 2.6 | 0.00 | 0.14 | 0.14 | 85 | 1010.6 |
| 20260507002516 | 64 | 131 | 1.7 | 2.6 | 0.00 | 0.14 | 0.14 | 88 | 1010.4 |